Thunder radar more information blitzortung!


Radar de pluja more information rain snow radar


Visita la nostra xarxa de llocs de meteo:

Template documentation
and downloads

And another site



No particular awareness of the weather is required.    There are no Weather-warnings

Pagina Historial Weather Underground text

Diari Resum Juny 21, 2016 Unitats:  Mètric    Imperial   Tant
« Previous Dia
SegĂźent Dia »
Diari Setmana Mensual Anual Personalitzada
  Maxima: Minima: Media:
Temperatura: -17.8 °C -9.7 °C -3.8 °C
Punt de rosada: -17.8 °C -14.6 °C -12.4 °C
Humitat: Humidity % 23 % 40 %
Wind Speed: 0 km/h 0 km/h 14.2 km/h
RĂ fegues de vent: 0 km/h - -
Vent:- - WSW
Pression baro: 0 hPa 34496.6 hPa -
Precipitacions: 0 mm    
Historical Graphs
 
 
Dades de taula per Juny 21, 2016
Temps Temperatura Punt de rosada Pression baro Vent Wind Speed RĂ fegues de vent Humitat Rainfall Rate (Hourly)
-17.8 °C -17.8 °C 0 hPa Calm     Humidity % 0 mm
00:00 -9.2 °C -13.1 °C 34601.5 hPa West 2.6 km/h   63 % 0 mm
00:02 -7.3 °C -12.7 °C 34601.5 hPa SW 9 km/h 9 km/h 53 % 0 mm
00:07 -7.3 °C -12.6 °C 34601.5 hPa SW 9 km/h 9 km/h 54 % 0 mm
00:10 -9.3 °C -13.1 °C 34601.5 hPa West 2.6 km/h   64 % 0 mm
00:20 -9.3 °C -12.9 °C 34567.7 hPa West 2.6 km/h   65 % 0 mm
00:30 -9.4 °C -13.2 °C 34601.5 hPa West 2.6 km/h   64 % 0 mm
00:40 -9.5 °C -13.1 °C 34601.5 hPa West 2.6 km/h   65 % 0 mm
00:50 -9.5 °C -13.1 °C 34601.5 hPa West 2.6 km/h   65 % 0 mm
01:00 -9.4 °C -12.9 °C 34601.5 hPa West 2.6 km/h   66 % 0 mm
01:10 -9.3 °C -12.8 °C 34601.5 hPa West 2.6 km/h   66 % 0 mm
01:20 -9.4 °C -13 °C 34567.7 hPa West 2.6 km/h   65 % 0 mm
01:30 -9.7 °C -13.4 °C 34601.5 hPa West 2.6 km/h   64 % 0 mm
01:40 -9.7 °C -13.3 °C 34601.5 hPa West 2.6 km/h   65 % 0 mm
01:50 -9.6 °C -13.4 °C 34567.7 hPa West 2.6 km/h   64 % 0 mm
02:00 -9.7 °C -13.4 °C 34601.5 hPa West 2.6 km/h   64 % 0 mm
02:10 -9.6 °C -13.4 °C 34601.5 hPa West 2.6 km/h   64 % 0 mm
02:20 -9.6 °C -13.2 °C 34635.4 hPa West 2.6 km/h   65 % 0 mm
02:30 -9.4 °C -13.2 °C 34601.5 hPa West 2.6 km/h   64 % 0 mm
02:40 -9.1 °C -12.8 °C 34601.5 hPa West 2.6 km/h   64 % 0 mm
02:50 -8.8 °C -12.7 °C 34601.5 hPa West 2.6 km/h   63 % 0 mm
03:00 -8.6 °C -12.6 °C 34601.5 hPa West 2.6 km/h   62 % 0 mm
03:10 -8.3 °C -12.6 °C 34601.5 hPa West 2.6 km/h   60 % 0 mm
03:20 -7.8 °C -12.2 °C 34601.5 hPa West 2.6 km/h   60 % 0 mm
03:30 -7.6 °C -12.1 °C 34601.5 hPa West 2.6 km/h   59 % 0 mm
03:40 -7.1 °C -12 °C 34601.5 hPa West 2.6 km/h   57 % 0 mm
03:50 -7.1 °C -12.1 °C 34601.5 hPa West 2.6 km/h   56 % 0 mm
04:00 -6.7 °C -12.1 °C 34601.5 hPa West 2.6 km/h 5.1 km/h 54 % 0 mm
04:10 -6 °C -11.6 °C 34601.5 hPa South 2.6 km/h 5.1 km/h 53 % 0 mm
04:20 -6 °C -11.7 °C 34601.5 hPa Calm   5.1 km/h 52 % 0 mm
04:30 -5.7 °C -11.8 °C 34601.5 hPa SW 5.1 km/h 5.1 km/h 50 % 0 mm
04:40 -5.3 °C -11.3 °C 34601.5 hPa SW 5.1 km/h 5.1 km/h 50 % 0 mm
04:50 -4.9 °C -11.5 °C 34601.5 hPa SSW 5.1 km/h 7.7 km/h 47 % 0 mm
05:00 -4.8 °C -11.6 °C 34601.5 hPa SW 5.1 km/h 7.7 km/h 46 % 0 mm
05:10 -4.7 °C -11.9 °C 34601.5 hPa SW 7.7 km/h 15.6 km/h 44 % 0 mm
05:20 -4.3 °C -11.9 °C 34567.7 hPa SW 5.1 km/h 15.6 km/h 42 % 0 mm
05:30 -4.1 °C -12 °C 34601.5 hPa SW 7.7 km/h 10.3 km/h 41 % 0 mm
05:40 -3.9 °C -12 °C 34601.5 hPa WSW 5.1 km/h 7.7 km/h 40 % 0 mm
05:50 -3.3 °C -11.5 °C 34601.5 hPa SW 7.7 km/h 12.9 km/h 40 % 0 mm
06:00 -3.3 °C -11.5 °C 34601.5 hPa SSW 7.7 km/h 7.7 km/h 40 % 0 mm
06:10 -3.4 °C -11.8 °C 34601.5 hPa SSW 5.1 km/h 10.3 km/h 39 % 0 mm
11:11 -3.4 °C -11.8 °C 34601.5 hPa SW 9 km/h 9 km/h 39 % 0 mm
11:16 -2.9 °C -11.1 °C 34601.5 hPa SSW 9.8 km/h 9.8 km/h 40 % 0 mm
11:21 -2.7 °C -11.3 °C 34601.5 hPa SSW 9.8 km/h 9.8 km/h 38 % 0 mm
11:26 -2.5 °C -11.2 °C 34601.5 hPa SSW 9.8 km/h 9.8 km/h 38 % 0 mm
11:31 -2.5 °C -11.4 °C 34601.5 hPa SSW 9.8 km/h 9.8 km/h 37 % 0 mm
11:36 -2.2 °C -11.3 °C 34601.5 hPa SSW 9.8 km/h 9.8 km/h 36 % 0 mm
11:41 -2.1 °C -11.3 °C 34601.5 hPa SSW 9.8 km/h 9.8 km/h 36 % 0 mm
11:46 -2 °C -11.2 °C 34601.5 hPa SSW 9.8 km/h 9.8 km/h 36 % 0 mm
11:51 -2.1 °C -11.5 °C 34601.5 hPa SW 7.6 km/h 9.3 km/h 35 % 0 mm
11:56 -1.9 °C -11.3 °C 34601.5 hPa SW 11.9 km/h 11.9 km/h 35 % 0 mm
12:01 -1.7 °C -11.6 °C 34601.5 hPa SW 11.9 km/h 11.9 km/h 33 % 0 mm
12:06 -1.9 °C -11.6 °C 34601.5 hPa SW 11.9 km/h 11.9 km/h 34 % 0 mm
12:11 -1.7 °C -11.7 °C 34601.5 hPa West 15 km/h 15 km/h 33 % 0 mm
12:16 -1.6 °C -12.1 °C 34601.5 hPa South 15 km/h 15 km/h 31 % 0 mm
12:21 -1.6 °C -11.8 °C 34601.5 hPa SSW 6.3 km/h 8 km/h 32 % 0 mm
12:26 -1.4 °C -11.9 °C 34567.7 hPa SSW 11.9 km/h 11.9 km/h 31 % 0 mm
12:31 -1.2 °C -11.4 °C 34567.7 hPa SW 15.6 km/h 15.6 km/h 32 % 0 mm
12:36 -1.3 °C -11.8 °C 34567.7 hPa SW 23.8 km/h 23.8 km/h 31 % 0 mm
12:41 -1.4 °C -11.9 °C 34567.7 hPa WSW 11.9 km/h 11.9 km/h 31 % 0 mm
12:46 -1.4 °C -11.9 °C 34567.7 hPa SW 11.9 km/h 11.9 km/h 31 % 0 mm
12:51 -1.2 °C -11.8 °C 34567.7 hPa SW 17.9 km/h 17.9 km/h 31 % 0 mm
12:56 -1.1 °C -11.7 °C 34533.8 hPa South 17.9 km/h 17.9 km/h 31 % 0 mm
13:01 -1.3 °C -11.6 °C 34533.8 hPa SW 15 km/h 15 km/h 32 % 0 mm
13:06 -1.1 °C -11.6 °C 34533.8 hPa West 17.9 km/h 17.9 km/h 31 % 0 mm
13:11 -1.1 °C -11.4 °C 34567.7 hPa SSW 20.9 km/h 20.9 km/h 32 % 0 mm
13:16 -1 °C -11.3 °C 34567.7 hPa WSW 22.5 km/h 22.5 km/h 32 % 0 mm
13:21 -1 °C -11.3 °C 34567.7 hPa WSW 20.9 km/h 20.9 km/h 32 % 0 mm
13:26 -1.1 °C -11.4 °C 34533.8 hPa WSW 17.9 km/h 17.9 km/h 32 % 0 mm
13:31 -0.8 °C -11.2 °C 34533.8 hPa SW 17.9 km/h 17.9 km/h 32 % 0 mm
13:36 -0.8 °C -11.4 °C 34533.8 hPa SSW 20.9 km/h 20.9 km/h 31 % 0 mm
13:41 -0.8 °C -11.4 °C 34533.8 hPa SW 22.5 km/h 22.5 km/h 31 % 0 mm
13:46 -0.9 °C -11.2 °C 34533.8 hPa SE 15 km/h 15 km/h 32 % 0 mm
13:51 -0.7 °C -11.3 °C 34533.8 hPa SW 23.8 km/h 23.8 km/h 31 % 0 mm
13:56 -0.8 °C -11.3 °C 34533.8 hPa SW 20.9 km/h 20.9 km/h 31 % 0 mm
14:01 -0.6 °C -11.2 °C 34533.8 hPa WSW 26.9 km/h 26.9 km/h 31 % 0 mm
14:06 -0.7 °C -11.1 °C 34533.8 hPa West 20.9 km/h 20.9 km/h 32 % 0 mm
14:11 -0.8 °C -11.3 °C 34533.8 hPa South 23.8 km/h 23.8 km/h 31 % 0 mm
14:16 -0.7 °C -11.3 °C 34533.8 hPa West 23.8 km/h 23.8 km/h 31 % 0 mm
14:21 -0.4 °C -11 °C 34533.8 hPa South 9 km/h 9.3 km/h 31 % 0 mm
14:26 -0.4 °C -11.3 °C 34533.8 hPa WSW 17.9 km/h 17.9 km/h 30 % 0 mm
14:31 -0.1 °C -11.1 °C 34533.8 hPa South 9 km/h 9 km/h 30 % 0 mm
14:36 0.1 °C -10.9 °C 34533.8 hPa South 17.9 km/h 17.9 km/h 30 % 0 mm
14:41 0.1 °C -11.2 °C 34533.8 hPa South 20.9 km/h 20.9 km/h 29 % 0 mm
14:46 0.1 °C -10.9 °C 34533.8 hPa WSW 15.3 km/h 15.3 km/h 30 % 0 mm
14:51 -0.2 °C -11.4 °C 34533.8 hPa South 15 km/h 15 km/h 29 % 0 mm
14:56 -0.2 °C -11.4 °C 34533.8 hPa WSW 35.7 km/h 35.7 km/h 29 % 0 mm
15:01 -0.2 °C -11.4 °C 34533.8 hPa West 20.9 km/h 20.9 km/h 29 % 0 mm
15:06 0 °C -11.6 °C 34533.8 hPa SW 20.9 km/h 20.9 km/h 28 % 0 mm
15:11 0.1 °C -11.5 °C 34533.8 hPa SW 15 km/h 15 km/h 28 % 0 mm
15:16 0.1 °C -11.8 °C 34533.8 hPa SW 23.8 km/h 23.8 km/h 27 % 0 mm
15:21 0 °C -11.8 °C 34533.8 hPa WSW 24.3 km/h 24.3 km/h 27 % 0 mm
15:26 -0.2 °C -11.7 °C 34533.8 hPa SW 17.9 km/h 17.9 km/h 28 % 0 mm
15:31 -0.3 °C -11.8 °C 34533.8 hPa SW 26.9 km/h 26.9 km/h 28 % 0 mm
15:36 -0.3 °C -11.8 °C 34533.8 hPa SSW 20.9 km/h 20.9 km/h 28 % 0 mm
15:41 -0.5 °C -12 °C 34533.8 hPa WSW 26.9 km/h 26.9 km/h 28 % 0 mm
15:46 -0.3 °C -11.8 °C 34533.8 hPa South 23.8 km/h 23.8 km/h 28 % 0 mm
15:51 -0.4 °C -12.2 °C 34533.8 hPa SSW 20.9 km/h 20.9 km/h 27 % 0 mm
15:56 -0.6 °C -12.4 °C 34533.8 hPa SSW 26.9 km/h 26.9 km/h 27 % 0 mm
16:01 -0.6 °C -12.3 °C 34533.8 hPa SSW 20.9 km/h 20.9 km/h 27 % 0 mm
16:06 -0.8 °C -12.8 °C 34533.8 hPa SSW 20.9 km/h 20.9 km/h 26 % 0 mm
16:11 -0.9 °C -12.9 °C 34533.8 hPa WSW 29.8 km/h 29.8 km/h 26 % 0 mm
16:16 -0.8 °C -12.9 °C 34533.8 hPa SW 20.3 km/h 20.3 km/h 26 % 0 mm
16:21 -0.8 °C -12.8 °C 34533.8 hPa WSW 26.9 km/h 26.9 km/h 26 % 0 mm
16:26 -0.8 °C -12.9 °C 34533.8 hPa South 20.9 km/h 20.9 km/h 26 % 0 mm
16:31 -0.6 °C -12.7 °C 34533.8 hPa WSW 20.9 km/h 20.9 km/h 26 % 0 mm
16:36 -0.4 °C -12.6 °C 34533.8 hPa SSW 15 km/h 15 km/h 26 % 0 mm
16:41 -0.5 °C -12.6 °C 34533.8 hPa West 17.9 km/h 17.9 km/h 26 % 0 mm
16:46 -0.6 °C -12.3 °C 34533.8 hPa SW 20.9 km/h 20.9 km/h 27 % 0 mm
16:51 -0.6 °C -12.3 °C 34533.8 hPa West 26.9 km/h 26.9 km/h 27 % 0 mm
16:56 -0.8 °C -12.6 °C 34533.8 hPa SW 35.7 km/h 35.7 km/h 27 % 0 mm
17:01 -0.9 °C -12.6 °C 34533.8 hPa SW 17.9 km/h 17.9 km/h 27 % 0 mm
17:06 -1 °C -13 °C 34533.8 hPa SW 32.8 km/h 32.8 km/h 26 % 0 mm
17:11 -1 °C -13 °C 34496.6 hPa SSW 34.1 km/h 34.1 km/h 26 % 0 mm
17:16 -1.3 °C -13 °C 34496.6 hPa SSW 26.9 km/h 26.9 km/h 27 % 0 mm
17:21 -1.3 °C -13 °C 34496.6 hPa SW 26.9 km/h 26.9 km/h 27 % 0 mm
17:26 -1.4 °C -13.1 °C 34496.6 hPa SSW 26.9 km/h 26.9 km/h 27 % 0 mm
17:31 -1.5 °C -13.4 °C 34496.6 hPa SW 32.8 km/h 32.8 km/h 26 % 0 mm
17:36 -1.3 °C -13.3 °C 34496.6 hPa SSW 26.9 km/h 26.9 km/h 26 % 0 mm
17:41 -1.2 °C -13.2 °C 34533.8 hPa WSW 20.9 km/h 20.9 km/h 26 % 0 mm
17:42 -1.2 °C -13.2 °C 34533.8 hPa WSW 20.9 km/h 20.9 km/h 26 % 0 mm
17:47 -1.2 °C -13.2 °C 34533.8 hPa SSW 20.9 km/h 20.9 km/h 26 % 0 mm
17:52 -1.1 °C -13.1 °C 34533.8 hPa WSW 20.9 km/h 20.9 km/h 26 % 0 mm
17:57 -1.2 °C -13.2 °C 34533.8 hPa SW 23.8 km/h 23.8 km/h 26 % 0 mm
18:02 -1.2 °C -13.2 °C 34533.8 hPa SSW 17.9 km/h 17.9 km/h 26 % 0 mm
18:07 -1.2 °C -13.2 °C 34533.8 hPa SW 29.8 km/h 29.8 km/h 26 % 0 mm
18:12 -1.2 °C -13.5 °C 34533.8 hPa South 26.9 km/h 26.9 km/h 25 % 0 mm
18:17 -1.2 °C -13.5 °C 34533.8 hPa SW 23.8 km/h 23.8 km/h 25 % 0 mm
18:22 -1.3 °C -13.6 °C 34533.8 hPa South 20.9 km/h 20.9 km/h 25 % 0 mm
18:27 -1.2 °C -13.5 °C 34533.8 hPa SW 11.9 km/h 11.9 km/h 25 % 0 mm
18:32 -1.2 °C -13.5 °C 34533.8 hPa WSW 24.3 km/h 24.3 km/h 25 % 0 mm
18:37 -1.4 °C -14.1 °C 34533.8 hPa SW 23.8 km/h 23.8 km/h 24 % 0 mm
18:42 -1.6 °C -14.6 °C 34496.6 hPa WSW 20.9 km/h 20.9 km/h 23 % 0 mm
18:47 -1.7 °C -14.6 °C 34496.6 hPa SW 15 km/h 15 km/h 23 % 0 mm
18:52 -1.7 °C -14.2 °C 34496.6 hPa SSW 11.9 km/h 11.9 km/h 24 % 0 mm
18:57 -1.8 °C -14 °C 34496.6 hPa SW 23.8 km/h 23.8 km/h 25 % 0 mm
19:02 -2.1 °C -14.6 °C 34496.6 hPa SW 15.6 km/h 15.6 km/h 24 % 0 mm
19:07 -2.3 °C -14.1 °C 34496.6 hPa WSW 26.9 km/h 26.9 km/h 26 % 0 mm
19:12 -2.3 °C -14.1 °C 34496.6 hPa WSW 26.9 km/h 26.9 km/h 26 % 0 mm
19:17 -2.4 °C -14.2 °C 34496.6 hPa WSW 26.9 km/h 26.9 km/h 26 % 0 mm
19:22 -2.5 °C -14 °C 34496.6 hPa South 19.2 km/h 19.2 km/h 27 % 0 mm
19:27 -2.4 °C -13.9 °C 34496.6 hPa South 19.2 km/h 19.2 km/h 27 % 0 mm
19:32 -2.6 °C -14.1 °C 34496.6 hPa South 19.2 km/h 19.2 km/h 27 % 0 mm
19:37 -2.7 °C -13.9 °C 34496.6 hPa West 15.3 km/h 16.1 km/h 28 % 0 mm
19:42 -2.7 °C -13.9 °C 34496.6 hPa West 17.9 km/h 17.9 km/h 28 % 0 mm
19:47 -2.9 °C -13.4 °C 34496.6 hPa West 17.9 km/h 17.9 km/h 30 % 0 mm
19:52 -3 °C -13.6 °C 34496.6 hPa West 17.9 km/h 17.9 km/h 30 % 0 mm
19:58 -3.2 °C -13.2 °C 34496.6 hPa West 17.9 km/h 17.9 km/h 32 % 0 mm
20:03 -3.3 °C -13 °C 34496.6 hPa West 17.9 km/h 17.9 km/h 33 % 0 mm
20:08 -3.3 °C -13.1 °C 34496.6 hPa WSW 20.9 km/h 20.9 km/h 33 % 0 mm
20:13 -3.4 °C -12.9 °C 34496.6 hPa WSW 20.9 km/h 20.9 km/h 34 % 0 mm
20:18 -3.6 °C -12.8 °C 34496.6 hPa WSW 22 km/h 22 km/h 35 % 0 mm
20:23 -3.7 °C -12.7 °C 34496.6 hPa WSW 20.9 km/h 20.9 km/h 36 % 0 mm
20:28 -3.7 °C -12.7 °C 34496.6 hPa WSW 20.9 km/h 20.9 km/h 36 % 0 mm
20:30 -6.3 °C -11.2 °C 34567.7 hPa SSW 5.1 km/h 10.3 km/h 57 % 0 mm
20:33 -3.8 °C -12.7 °C 34496.6 hPa WSW 20.9 km/h 20.9 km/h 36 % 0 mm
20:38 -3.9 °C -12.8 °C 34496.6 hPa WSW 20.9 km/h 20.9 km/h 36 % 0 mm
20:40 -6.4 °C -11.3 °C 34567.7 hPa SSW 5.1 km/h 10.3 km/h 57 % 0 mm
20:43 -3.9 °C -12.7 °C 34496.6 hPa WSW 20.9 km/h 20.9 km/h 37 % 0 mm
20:48 -4.1 °C -12.6 °C 34496.6 hPa WSW 20.9 km/h 20.9 km/h 38 % 0 mm
20:50 -6.6 °C -11.4 °C 34567.7 hPa SSW 5.1 km/h 10.3 km/h 57 % 0 mm
20:58 -4.2 °C -12.4 °C 34496.6 hPa WSW 20.9 km/h 20.9 km/h 39 % 0 mm
21:00 -6.7 °C -11.7 °C 34567.7 hPa SW 2.6 km/h 5.1 km/h 56 % 0 mm
21:03 -4.3 °C -12.6 °C 34496.6 hPa WSW 20.9 km/h 20.9 km/h 39 % 0 mm
21:08 -4.4 °C -12.4 °C 34496.6 hPa WSW 20.9 km/h 20.9 km/h 40 % 0 mm
21:10 -6.7 °C -11.6 °C 34567.7 hPa WSW 2.6 km/h 5.1 km/h 57 % 0 mm
21:13 -4.5 °C -12.5 °C 34533.8 hPa WSW 20.9 km/h 20.9 km/h 40 % 0 mm
21:18 -4.6 °C -12.6 °C 34533.8 hPa WSW 20.9 km/h 20.9 km/h 40 % 0 mm
21:20 -6.7 °C -11.6 °C 34567.7 hPa West 2.6 km/h 5.1 km/h 57 % 0 mm
21:23 -4.7 °C -12.5 °C 34533.8 hPa WSW 20.9 km/h 20.9 km/h 41 % 0 mm
21:28 -4.8 °C -12.6 °C 34496.6 hPa WSW 20.9 km/h 20.9 km/h 41 % 0 mm
21:30 -6.7 °C -11.6 °C 34567.7 hPa West 2.6 km/h 2.6 km/h 57 % 0 mm
21:33 -4.8 °C -12.6 °C 34496.6 hPa WSW 20.9 km/h 20.9 km/h 41 % 0 mm
21:38 -4.9 °C -12.5 °C 34496.6 hPa WSW 20.9 km/h 20.9 km/h 42 % 0 mm
21:40 -6.7 °C -11.8 °C 34567.7 hPa West 2.6 km/h 2.6 km/h 56 % 0 mm
21:43 -5 °C -12.4 °C 34533.8 hPa WSW 20.9 km/h 20.9 km/h 43 % 0 mm
21:48 -5.1 °C -12.3 °C 34533.8 hPa WSW 20.9 km/h 20.9 km/h 44 % 0 mm
21:53 -5.2 °C -12.1 °C 34533.8 hPa WSW 20.9 km/h 20.9 km/h 45 % 0 mm
21:58 -5.2 °C -12.2 °C 34533.8 hPa WSW 20.9 km/h 20.9 km/h 45 % 0 mm
22:00 -6.7 °C -11.9 °C 34533.8 hPa West 2.6 km/h 2.6 km/h 55 % 0 mm
22:03 -5.3 °C -12.3 °C 34533.8 hPa WSW 20.9 km/h 20.9 km/h 45 % 0 mm
22:08 -5.3 °C -12.3 °C 34533.8 hPa WSW 20.9 km/h 20.9 km/h 45 % 0 mm
22:10 -6.9 °C -12.1 °C 34533.8 hPa West 2.6 km/h 2.6 km/h 55 % 0 mm
22:13 -5.4 °C -12.2 °C 34533.8 hPa WSW 20.9 km/h 20.9 km/h 46 % 0 mm
22:18 -5.4 °C -12.2 °C 34533.8 hPa WSW 20.9 km/h 20.9 km/h 46 % 0 mm
22:20 -7 °C -12.2 °C 34533.8 hPa West 2.6 km/h 2.6 km/h 55 % 0 mm
22:23 -5.5 °C -12.3 °C 34533.8 hPa West 7.6 km/h 7.6 km/h 46 % 0 mm
22:28 -5.5 °C -12.3 °C 34496.6 hPa West 7.6 km/h 7.6 km/h 46 % 0 mm
22:30 -7.1 °C -12.3 °C 34533.8 hPa West 2.6 km/h 2.6 km/h 55 % 0 mm
22:33 -5.6 °C -12.3 °C 34496.6 hPa West 7.6 km/h 7.6 km/h 46 % 0 mm
22:38 -5.6 °C -12.1 °C 34496.6 hPa West 7.6 km/h 7.6 km/h 47 % 0 mm
22:40 -7.2 °C -12.4 °C 34533.8 hPa WSW 5.1 km/h 7.7 km/h 54 % 0 mm
22:43 -5.6 °C -12.2 °C 34533.8 hPa West 7.6 km/h 7.6 km/h 47 % 0 mm
22:48 -5.7 °C -12.2 °C 34533.8 hPa West 7.6 km/h 7.6 km/h 47 % 0 mm
22:50 -7.2 °C -12.6 °C 34533.8 hPa SW 5.1 km/h 7.7 km/h 53 % 0 mm
22:53 -5.7 °C -12.1 °C 34533.8 hPa West 7.6 km/h 7.6 km/h 48 % 0 mm
22:58 -5.8 °C -12.2 °C 34533.8 hPa West 7.6 km/h 7.6 km/h 48 % 0 mm
23:00 -7.2 °C -12.7 °C 34533.8 hPa SW 5.1 km/h 7.7 km/h 53 % 0 mm
23:03 -5.8 °C -12.2 °C 34533.8 hPa West 7.6 km/h 7.6 km/h 48 % 0 mm
23:08 -5.8 °C -12.2 °C 34533.8 hPa West 7.6 km/h 7.6 km/h 48 % 0 mm
23:10 -7.1 °C -12.7 °C 34533.8 hPa SW 5.1 km/h 7.7 km/h 52 % 0 mm
23:13 -5.9 °C -12.3 °C 34533.8 hPa West 7.6 km/h 7.6 km/h 48 % 0 mm
23:18 -5.9 °C -12.3 °C 34533.8 hPa West 7.6 km/h 7.6 km/h 48 % 0 mm
23:20 -7.1 °C -12.7 °C 34533.8 hPa SW 5.1 km/h 7.7 km/h 52 % 0 mm
23:23 -5.9 °C -12.3 °C 34533.8 hPa West 7.6 km/h 7.6 km/h 48 % 0 mm
23:28 -5.9 °C -12.3 °C 34533.8 hPa West 7.6 km/h 7.6 km/h 48 % 0 mm
23:30 -7.1 °C -12.7 °C 34533.8 hPa SW 2.6 km/h 5.1 km/h 52 % 0 mm
23:33 -6 °C -12.4 °C 34533.8 hPa West 7.6 km/h 7.6 km/h 48 % 0 mm
23:38 -6 °C -12.4 °C 34533.8 hPa West 7.6 km/h 7.6 km/h 48 % 0 mm
23:40 -7.1 °C -12.9 °C 34533.8 hPa WSW 2.6 km/h 5.1 km/h 51 % 0 mm
23:43 -6.1 °C -12.4 °C 34533.8 hPa West 7.6 km/h 7.6 km/h 48 % 0 mm
23:48 -6.1 °C -12.4 °C 34533.8 hPa West 7.6 km/h 7.6 km/h 48 % 0 mm
23:50 -7.1 °C -12.9 °C 34533.8 hPa Calm   5.1 km/h 51 % 0 mm
23:53 -6.1 °C -12.4 °C 34533.8 hPa West 7.6 km/h 7.6 km/h 48 % 0 mm
23:58 -6.1 °C -12.3 °C 34533.8 hPa West 7.6 km/h 7.6 km/h 49 % 0 mm
Meteo Sesrovires
Elogis d' Weather Underground - 2 mb

Guio original per  Jim McMurry - jmcmurry@mwt.net Adaptat per a la plantilla per  Wim van der Kuil - Leuven-Template.eu

Trobareu la nostra informacio del temps tambe a:

Weather Underground

AWEKAS